Terminal Aerodrome Forecast
Issued by NWS

Home | Current Version | Previous Version | Text Only | Print | Product List | Glossary On
Versions: 1 2 3 4 5 6 7 8 9 10 11 12 13 14 15 16 17 18 19 20 21 22 23 24 25 26 27 28 29 30 31 32 33 34 35 36
000
FTUS44 KLIX 022300
TAFHUM
TAF
KHUM 022332Z 0300/0324 14006KT P6SM SCT023
      TEMPO 0301/0303 4SM BR BKN023
     FM030300 16005KT 1 1/2SM BR BKN005
     FM030600 13005KT 1/4SM FG OVC003
     FM031300 14009KT 1/4SM FG OVC003
     FM031500 15011KT 4SM BR BKN005
     FM031800 17013KT P6SM BKN008=

USA.gov is the U.S. government's official web portal to all federal, state and local government web resources and services.